sensor_id;sensor_type;location;lat;lon;timestamp;P1;P2;P0
49064;PMS5003;34876;51.464;-0.150;2023-08-24T00:00:06;4;3;
49064;PMS5003;34876;51.464;-0.150;2023-08-24T00:03:33;17;14;
49064;PMS5003;34876;51.464;-0.150;2023-08-24T00:06:02;12;12;
49064;PMS5003;34876;51.464;-0.150;2023-08-24T00:08:31;13;11;
49064;PMS5003;34876;51.464;-0.150;2023-08-24T00:11:00;13;12;
49064;PMS5003;34876;51.464;-0.150;2023-08-24T00:13:30;13;12;
49064;PMS5003;34876;51.464;-0.150;2023-08-24T00:16:01;14;13;
49064;PMS5003;34876;51.464;-0.150;2023-08-24T00:18:29;14;12;
49064;PMS5003;34876;51.464;-0.150;2023-08-24T00:20:58;16;15;
49064;PMS5003;34876;51.464;-0.150;2023-08-24T00:23:27;13;12;
49064;PMS5003;34876;51.464;-0.150;2023-08-24T00:25:57;14;14;
49064;PMS5003;34876;51.464;-0.150;2023-08-24T00:28:27;12;10;
49064;PMS5003;34876;51.464;-0.150;2023-08-24T00:30:56;14;11;
49064;PMS5003;34876;51.464;-0.150;2023-08-24T00:33:26;13;11;
49064;PMS5003;34876;51.464;-0.150;2023-08-24T00:35:58;15;13;
49064;PMS5003;34876;51.464;-0.150;2023-08-24T00:38:27;14;12;
49064;PMS5003;34876;51.464;-0.150;2023-08-24T00:40:57;13;12;
49064;PMS5003;34876;51.464;-0.150;2023-08-24T00:43:26;16;15;
49064;PMS5003;34876;51.464;-0.150;2023-08-24T00:45:56;16;13;
49064;PMS5003;34876;51.464;-0.150;2023-08-24T00:48:27;11;11;
49064;PMS5003;34876;51.464;-0.150;2023-08-24T00:50:59;11;10;
49064;PMS5003;34876;51.464;-0.150;2023-08-24T00:53:29;18;16;
49064;PMS5003;34876;51.464;-0.150;2023-08-24T00:55:59;13;13;
49064;PMS5003;34876;51.464;-0.150;2023-08-24T00:58:30;15;14;
49064;PMS5003;34876;51.464;-0.150;2023-08-24T01:01:00;13;13;
49064;PMS5003;34876;51.464;-0.150;2023-08-24T01:03:29;15;13;
49064;PMS5003;34876;51.464;-0.150;2023-08-24T01:05:59;15;14;
49064;PMS5003;34876;51.464;-0.150;2023-08-24T01:08:28;12;11;
49064;PMS5003;34876;51.464;-0.150;2023-08-24T01:11:00;15;12;
49064;PMS5003;34876;51.464;-0.150;2023-08-24T01:13:42;14;14;
49064;PMS5003;34876;51.464;-0.150;2023-08-24T01:16:18;16;14;
49064;PMS5003;34876;51.464;-0.150;2023-08-24T01:18:53;12;12;
49064;PMS5003;34876;51.464;-0.150;2023-08-24T01:21:25;16;15;
49064;PMS5003;34876;51.464;-0.150;2023-08-24T01:23:57;14;14;
49064;PMS5003;34876;51.464;-0.150;2023-08-24T01:26:38;13;13;
49064;PMS5003;34876;51.464;-0.150;2023-08-24T01:29:09;15;14;
49064;PMS5003;34876;51.464;-0.150;2023-08-24T01:31:41;15;14;
49064;PMS5003;34876;51.464;-0.150;2023-08-24T01:34:11;18;16;
49064;PMS5003;34876;51.464;-0.150;2023-08-24T01:36:40;19;18;
49064;PMS5003;34876;51.464;-0.150;2023-08-24T01:39:11;19;18;
49064;PMS5003;34876;51.464;-0.150;2023-08-24T01:41:50;19;17;
49064;PMS5003;34876;51.464;-0.150;2023-08-24T01:44:22;19;16;
49064;PMS5003;34876;51.464;-0.150;2023-08-24T01:46:54;20;17;
49064;PMS5003;34876;51.464;-0.150;2023-08-24T01:49:25;16;15;
49064;PMS5003;34876;51.464;-0.150;2023-08-24T01:51:55;15;13;
49064;PMS5003;34876;51.464;-0.150;2023-08-24T01:54:26;22;18;
49064;PMS5003;34876;51.464;-0.150;2023-08-24T01:56:55;17;14;
49064;PMS5003;34876;51.464;-0.150;2023-08-24T01:59:25;14;14;
49064;PMS5003;34876;51.464;-0.150;2023-08-24T02:01:55;11;11;
49064;PMS5003;34876;51.464;-0.150;2023-08-24T02:04:23;13;13;
49064;PMS5003;34876;51.464;-0.150;2023-08-24T02:06:52;14;12;
49064;PMS5003;34876;51.464;-0.150;2023-08-24T02:09:22;14;11;
49064;PMS5003;34876;51.464;-0.150;2023-08-24T02:11:51;12;11;
49064;PMS5003;34876;51.464;-0.150;2023-08-24T02:14:21;14;14;
49064;PMS5003;34876;51.464;-0.150;2023-08-24T02:16:52;13;13;
49064;PMS5003;34876;51.464;-0.150;2023-08-24T02:19:21;17;17;
49064;PMS5003;34876;51.464;-0.150;2023-08-24T02:21:51;11;11;
49064;PMS5003;34876;51.464;-0.150;2023-08-24T02:24:20;15;14;
49064;PMS5003;34876;51.464;-0.150;2023-08-24T02:26:50;16;13;
49064;PMS5003;34876;51.464;-0.150;2023-08-24T02:29:20;12;10;
49064;PMS5003;34876;51.464;-0.150;2023-08-24T02:31:50;17;11;
49064;PMS5003;34876;51.464;-0.150;2023-08-24T02:34:19;10;10;
49064;PMS5003;34876;51.464;-0.150;2023-08-24T02:36:48;12;11;
49064;PMS5003;34876;51.464;-0.150;2023-08-24T02:39:18;12;12;
49064;PMS5003;34876;51.464;-0.150;2023-08-24T02:41:47;13;11;
49064;PMS5003;34876;51.464;-0.150;2023-08-24T02:44:16;11;11;
49064;PMS5003;34876;51.464;-0.150;2023-08-24T02:46:45;11;11;
49064;PMS5003;34876;51.464;-0.150;2023-08-24T02:49:16;13;12;
49064;PMS5003;34876;51.464;-0.150;2023-08-24T02:51:45;11;10;
49064;PMS5003;34876;51.464;-0.150;2023-08-24T02:54:14;10;10;
49064;PMS5003;34876;51.464;-0.150;2023-08-24T02:56:46;11;10;
49064;PMS5003;34876;51.464;-0.150;2023-08-24T02:59:15;10;9;
49064;PMS5003;34876;51.464;-0.150;2023-08-24T03:01:44;14;13;
49064;PMS5003;34876;51.464;-0.150;2023-08-24T03:04:14;10;10;
49064;PMS5003;34876;51.464;-0.150;2023-08-24T03:06:43;10;9;
49064;PMS5003;34876;51.464;-0.150;2023-08-24T03:09:13;12;11;
49064;PMS5003;34876;51.464;-0.150;2023-08-24T03:11:42;11;11;
49064;PMS5003;34876;51.464;-0.150;2023-08-24T03:14:11;10;10;
49064;PMS5003;34876;51.464;-0.150;2023-08-24T03:16:40;13;10;
49064;PMS5003;34876;51.464;-0.150;2023-08-24T03:19:10;9;9;
49064;PMS5003;34876;51.464;-0.150;2023-08-24T03:21:39;11;10;
49064;PMS5003;34876;51.464;-0.150;2023-08-24T03:24:08;8;8;
49064;PMS5003;34876;51.464;-0.150;2023-08-24T03:26:37;11;9;
49064;PMS5003;34876;51.464;-0.150;2023-08-24T03:29:05;11;9;
49064;PMS5003;34876;51.464;-0.150;2023-08-24T03:31:34;11;11;
49064;PMS5003;34876;51.464;-0.150;2023-08-24T03:34:03;11;10;
49064;PMS5003;34876;51.464;-0.150;2023-08-24T03:36:32;9;9;
49064;PMS5003;34876;51.464;-0.150;2023-08-24T03:39:01;10;10;
49064;PMS5003;34876;51.464;-0.150;2023-08-24T03:41:31;10;9;
49064;PMS5003;34876;51.464;-0.150;2023-08-24T03:44:00;9;9;
49064;PMS5003;34876;51.464;-0.150;2023-08-24T03:46:29;11;11;
49064;PMS5003;34876;51.464;-0.150;2023-08-24T03:48:58;8;8;
49064;PMS5003;34876;51.464;-0.150;2023-08-24T03:51:27;9;9;
49064;PMS5003;34876;51.464;-0.150;2023-08-24T03:53:56;8;8;
49064;PMS5003;34876;51.464;-0.150;2023-08-24T03:56:25;10;9;
49064;PMS5003;34876;51.464;-0.150;2023-08-24T03:58:54;10;9;
49064;PMS5003;34876;51.464;-0.150;2023-08-24T04:01:23;9;9;
49064;PMS5003;34876;51.464;-0.150;2023-08-24T04:03:52;9;9;
49064;PMS5003;34876;51.464;-0.150;2023-08-24T04:06:20;12;10;
49064;PMS5003;34876;51.464;-0.150;2023-08-24T04:08:50;7;6;
49064;PMS5003;34876;51.464;-0.150;2023-08-24T04:11:18;9;8;
49064;PMS5003;34876;51.464;-0.150;2023-08-24T04:13:48;9;8;
49064;PMS5003;34876;51.464;-0.150;2023-08-24T04:16:16;8;7;
49064;PMS5003;34876;51.464;-0.150;2023-08-24T04:18:46;9;9;
49064;PMS5003;34876;51.464;-0.150;2023-08-24T04:21:14;10;9;
49064;PMS5003;34876;51.464;-0.150;2023-08-24T04:23:43;11;10;
49064;PMS5003;34876;51.464;-0.150;2023-08-24T04:26:12;12;10;
49064;PMS5003;34876;51.464;-0.150;2023-08-24T04:28:41;9;9;
49064;PMS5003;34876;51.464;-0.150;2023-08-24T04:31:10;8;8;
49064;PMS5003;34876;51.464;-0.150;2023-08-24T04:33:39;8;8;
49064;PMS5003;34876;51.464;-0.150;2023-08-24T04:36:08;8;8;
49064;PMS5003;34876;51.464;-0.150;2023-08-24T04:38:37;11;9;
49064;PMS5003;34876;51.464;-0.150;2023-08-24T04:41:07;7;7;
49064;PMS5003;34876;51.464;-0.150;2023-08-24T04:43:36;7;6;
49064;PMS5003;34876;51.464;-0.150;2023-08-24T04:46:05;8;8;
49064;PMS5003;34876;51.464;-0.150;2023-08-24T04:48:34;8;8;
49064;PMS5003;34876;51.464;-0.150;2023-08-24T04:51:03;10;10;
49064;PMS5003;34876;51.464;-0.150;2023-08-24T04:53:32;11;9;
49064;PMS5003;34876;51.464;-0.150;2023-08-24T04:56:01;7;7;
49064;PMS5003;34876;51.464;-0.150;2023-08-24T04:58:32;8;7;
49064;PMS5003;34876;51.464;-0.150;2023-08-24T05:01:02;10;8;
49064;PMS5003;34876;51.464;-0.150;2023-08-24T05:03:31;6;6;
49064;PMS5003;34876;51.464;-0.150;2023-08-24T05:06:00;10;10;
49064;PMS5003;34876;51.464;-0.150;2023-08-24T05:08:29;7;7;
49064;PMS5003;34876;51.464;-0.150;2023-08-24T05:10:58;6;6;
49064;PMS5003;34876;51.464;-0.150;2023-08-24T05:13:27;8;7;
49064;PMS5003;34876;51.464;-0.150;2023-08-24T05:15:57;7;7;
49064;PMS5003;34876;51.464;-0.150;2023-08-24T05:18:26;7;6;
49064;PMS5003;34876;51.464;-0.150;2023-08-24T05:20:56;9;9;
49064;PMS5003;34876;51.464;-0.150;2023-08-24T05:23:26;7;7;
49064;PMS5003;34876;51.464;-0.150;2023-08-24T05:25:56;9;9;
49064;PMS5003;34876;51.464;-0.150;2023-08-24T05:28:25;7;7;
49064;PMS5003;34876;51.464;-0.150;2023-08-24T05:30:54;7;6;
49064;PMS5003;34876;51.464;-0.150;2023-08-24T05:33:24;8;8;
49064;PMS5003;34876;51.464;-0.150;2023-08-24T05:35:54;8;8;
49064;PMS5003;34876;51.464;-0.150;2023-08-24T05:38:23;10;10;
49064;PMS5003;34876;51.464;-0.150;2023-08-24T05:40:52;8;8;
49064;PMS5003;34876;51.464;-0.150;2023-08-24T05:43:21;5;5;
49064;PMS5003;34876;51.464;-0.150;2023-08-24T05:45:50;7;7;
49064;PMS5003;34876;51.464;-0.150;2023-08-24T05:48:20;6;6;
49064;PMS5003;34876;51.464;-0.150;2023-08-24T05:50:49;9;8;
49064;PMS5003;34876;51.464;-0.150;2023-08-24T05:53:18;7;7;
49064;PMS5003;34876;51.464;-0.150;2023-08-24T05:55:47;5;5;
49064;PMS5003;34876;51.464;-0.150;2023-08-24T05:58:16;7;7;
49064;PMS5003;34876;51.464;-0.150;2023-08-24T06:00:45;6;6;
49064;PMS5003;34876;51.464;-0.150;2023-08-24T06:03:14;7;7;
49064;PMS5003;34876;51.464;-0.150;2023-08-24T06:05:43;10;9;
49064;PMS5003;34876;51.464;-0.150;2023-08-24T06:08:12;5;5;
49064;PMS5003;34876;51.464;-0.150;2023-08-24T06:10:41;7;7;
49064;PMS5003;34876;51.464;-0.150;2023-08-24T06:13:10;4;4;
49064;PMS5003;34876;51.464;-0.150;2023-08-24T06:15:39;10;8;
49064;PMS5003;34876;51.464;-0.150;2023-08-24T06:18:08;6;5;
49064;PMS5003;34876;51.464;-0.150;2023-08-24T06:20:37;7;7;
49064;PMS5003;34876;51.464;-0.150;2023-08-24T06:23:06;5;5;
49064;PMS5003;34876;51.464;-0.150;2023-08-24T06:25:35;8;6;
49064;PMS5003;34876;51.464;-0.150;2023-08-24T06:28:04;9;9;
49064;PMS5003;34876;51.464;-0.150;2023-08-24T06:30:36;8;7;
49064;PMS5003;34876;51.464;-0.150;2023-08-24T06:33:06;6;6;
49064;PMS5003;34876;51.464;-0.150;2023-08-24T06:35:36;9;7;
49064;PMS5003;34876;51.464;-0.150;2023-08-24T06:38:05;3;3;
49064;PMS5003;34876;51.464;-0.150;2023-08-24T06:40:33;6;5;
49064;PMS5003;34876;51.464;-0.150;2023-08-24T06:43:03;6;6;
49064;PMS5003;34876;51.464;-0.150;2023-08-24T06:45:32;6;6;
49064;PMS5003;34876;51.464;-0.150;2023-08-24T06:48:01;8;6;
49064;PMS5003;34876;51.464;-0.150;2023-08-24T06:50:30;8;8;
49064;PMS5003;34876;51.464;-0.150;2023-08-24T06:52:59;6;6;
49064;PMS5003;34876;51.464;-0.150;2023-08-24T06:55:28;6;6;
49064;PMS5003;34876;51.464;-0.150;2023-08-24T06:57:58;5;5;
49064;PMS5003;34876;51.464;-0.150;2023-08-24T07:00:27;5;5;
49064;PMS5003;34876;51.464;-0.150;2023-08-24T07:02:56;9;9;
49064;PMS5003;34876;51.464;-0.150;2023-08-24T07:05:25;8;6;
49064;PMS5003;34876;51.464;-0.150;2023-08-24T07:07:54;5;5;
49064;PMS5003;34876;51.464;-0.150;2023-08-24T07:10:23;5;4;
49064;PMS5003;34876;51.464;-0.150;2023-08-24T07:12:53;6;6;
49064;PMS5003;34876;51.464;-0.150;2023-08-24T07:15:23;6;5;
49064;PMS5003;34876;51.464;-0.150;2023-08-24T07:17:52;8;8;
49064;PMS5003;34876;51.464;-0.150;2023-08-24T07:20:22;6;6;
49064;PMS5003;34876;51.464;-0.150;2023-08-24T07:22:51;8;8;
49064;PMS5003;34876;51.464;-0.150;2023-08-24T07:25:20;4;4;
49064;PMS5003;34876;51.464;-0.150;2023-08-24T07:27:49;5;5;
49064;PMS5003;34876;51.464;-0.150;2023-08-24T07:30:19;6;6;
49064;PMS5003;34876;51.464;-0.150;2023-08-24T07:32:48;6;6;
49064;PMS5003;34876;51.464;-0.150;2023-08-24T07:35:17;6;6;
49064;PMS5003;34876;51.464;-0.150;2023-08-24T07:37:46;5;5;
49064;PMS5003;34876;51.464;-0.150;2023-08-24T07:40:15;7;6;
49064;PMS5003;34876;51.464;-0.150;2023-08-24T07:42:46;7;7;
49064;PMS5003;34876;51.464;-0.150;2023-08-24T07:45:16;4;4;
49064;PMS5003;34876;51.464;-0.150;2023-08-24T07:47:46;7;7;
49064;PMS5003;34876;51.464;-0.150;2023-08-24T07:50:16;5;5;
49064;PMS5003;34876;51.464;-0.150;2023-08-24T07:52:50;6;6;
49064;PMS5003;34876;51.464;-0.150;2023-08-24T07:55:19;4;4;
49064;PMS5003;34876;51.464;-0.150;2023-08-24T07:57:48;7;7;
49064;PMS5003;34876;51.464;-0.150;2023-08-24T08:00:17;8;6;
49064;PMS5003;34876;51.464;-0.150;2023-08-24T08:02:46;5;5;
49064;PMS5003;34876;51.464;-0.150;2023-08-24T08:05:18;5;5;
49064;PMS5003;34876;51.464;-0.150;2023-08-24T08:07:47;6;5;
49064;PMS5003;34876;51.464;-0.150;2023-08-24T08:10:17;9;8;
49064;PMS5003;34876;51.464;-0.150;2023-08-24T08:12:46;6;6;
49064;PMS5003;34876;51.464;-0.150;2023-08-24T08:15:15;6;6;
49064;PMS5003;34876;51.464;-0.150;2023-08-24T08:17:44;6;6;
49064;PMS5003;34876;51.464;-0.150;2023-08-24T08:20:14;6;6;
49064;PMS5003;34876;51.464;-0.150;2023-08-24T08:22:44;6;5;
49064;PMS5003;34876;51.464;-0.150;2023-08-24T08:25:12;6;6;
49064;PMS5003;34876;51.464;-0.150;2023-08-24T08:27:42;6;6;
49064;PMS5003;34876;51.464;-0.150;2023-08-24T08:30:13;4;4;
49064;PMS5003;34876;51.464;-0.150;2023-08-24T08:32:42;5;5;
49064;PMS5003;34876;51.464;-0.150;2023-08-24T08:35:11;8;7;
49064;PMS5003;34876;51.464;-0.150;2023-08-24T08:37:40;8;8;
49064;PMS5003;34876;51.464;-0.150;2023-08-24T08:40:10;6;6;
49064;PMS5003;34876;51.464;-0.150;2023-08-24T08:42:40;8;8;
49064;PMS5003;34876;51.464;-0.150;2023-08-24T08:45:09;6;6;
49064;PMS5003;34876;51.464;-0.150;2023-08-24T08:47:38;5;5;
49064;PMS5003;34876;51.464;-0.150;2023-08-24T08:50:09;6;6;
49064;PMS5003;34876;51.464;-0.150;2023-08-24T08:52:39;8;8;
49064;PMS5003;34876;51.464;-0.150;2023-08-24T08:55:08;6;6;
49064;PMS5003;34876;51.464;-0.150;2023-08-24T08:57:41;5;5;
49064;PMS5003;34876;51.464;-0.150;2023-08-24T09:00:11;6;6;
49064;PMS5003;34876;51.464;-0.150;2023-08-24T09:02:42;6;5;
49064;PMS5003;34876;51.464;-0.150;2023-08-24T09:05:12;7;6;
49064;PMS5003;34876;51.464;-0.150;2023-08-24T09:07:44;5;5;
49064;PMS5003;34876;51.464;-0.150;2023-08-24T09:10:13;5;5;
49064;PMS5003;34876;51.464;-0.150;2023-08-24T09:12:43;5;4;
49064;PMS5003;34876;51.464;-0.150;2023-08-24T09:15:23;6;6;
49064;PMS5003;34876;51.464;-0.150;2023-08-24T09:17:54;5;5;
49064;PMS5003;34876;51.464;-0.150;2023-08-24T09:20:27;6;6;
49064;PMS5003;34876;51.464;-0.150;2023-08-24T09:22:57;6;6;
49064;PMS5003;34876;51.464;-0.150;2023-08-24T09:25:27;8;7;
49064;PMS5003;34876;51.464;-0.150;2023-08-24T09:27:57;9;6;
49064;PMS5003;34876;51.464;-0.150;2023-08-24T09:30:32;7;6;
49064;PMS5003;34876;51.464;-0.150;2023-08-24T09:33:04;6;5;
49064;PMS5003;34876;51.464;-0.150;2023-08-24T09:35:38;6;6;
49064;PMS5003;34876;51.464;-0.150;2023-08-24T09:38:22;6;6;
49064;PMS5003;34876;51.464;-0.150;2023-08-24T09:40:53;4;4;
49064;PMS5003;34876;51.464;-0.150;2023-08-24T09:43:29;6;6;
49064;PMS5003;34876;51.464;-0.150;2023-08-24T09:45:59;9;8;
49064;PMS5003;34876;51.464;-0.150;2023-08-24T09:48:28;6;6;
49064;PMS5003;34876;51.464;-0.150;2023-08-24T09:51:00;5;5;
49064;PMS5003;34876;51.464;-0.150;2023-08-24T09:53:33;7;7;
49064;PMS5003;34876;51.464;-0.150;2023-08-24T09:56:09;6;5;
49064;PMS5003;34876;51.464;-0.150;2023-08-24T09:58:40;5;5;
49064;PMS5003;34876;51.464;-0.150;2023-08-24T10:01:11;6;6;
49064;PMS5003;34876;51.464;-0.150;2023-08-24T10:03:41;8;8;
49064;PMS5003;34876;51.464;-0.150;2023-08-24T10:06:11;9;9;
49064;PMS5003;34876;51.464;-0.150;2023-08-24T10:08:43;8;7;
49064;PMS5003;34876;51.464;-0.150;2023-08-24T10:11:16;7;6;
49064;PMS5003;34876;51.464;-0.150;2023-08-24T10:13:49;9;9;
49064;PMS5003;34876;51.464;-0.150;2023-08-24T10:16:27;6;6;
49064;PMS5003;34876;51.464;-0.150;2023-08-24T10:18:58;6;6;
49064;PMS5003;34876;51.464;-0.150;2023-08-24T10:21:28;6;6;
49064;PMS5003;34876;51.464;-0.150;2023-08-24T10:23:58;6;6;
49064;PMS5003;34876;51.464;-0.150;2023-08-24T10:26:32;7;7;
49064;PMS5003;34876;51.464;-0.150;2023-08-24T10:29:01;8;6;
49064;PMS5003;34876;51.464;-0.150;2023-08-24T10:31:33;9;7;
49064;PMS5003;34876;51.464;-0.150;2023-08-24T10:34:03;9;8;
49064;PMS5003;34876;51.464;-0.150;2023-08-24T10:36:35;12;9;
49064;PMS5003;34876;51.464;-0.150;2023-08-24T10:39:07;6;5;
49064;PMS5003;34876;51.464;-0.150;2023-08-24T10:41:52;9;9;
49064;PMS5003;34876;51.464;-0.150;2023-08-24T10:44:21;7;7;
49064;PMS5003;34876;51.464;-0.150;2023-08-24T10:47:11;6;5;
49064;PMS5003;34876;51.464;-0.150;2023-08-24T10:49:42;9;8;
49064;PMS5003;34876;51.464;-0.150;2023-08-24T10:52:20;5;5;
49064;PMS5003;34876;51.464;-0.150;2023-08-24T10:54:51;7;7;
49064;PMS5003;34876;51.464;-0.150;2023-08-24T10:57:22;8;8;
49064;PMS5003;34876;51.464;-0.150;2023-08-24T11:00:02;6;6;
49064;PMS5003;34876;51.464;-0.150;2023-08-24T11:02:44;6;6;
49064;PMS5003;34876;51.464;-0.150;2023-08-24T11:05:15;8;7;
49064;PMS5003;34876;51.464;-0.150;2023-08-24T11:07:53;9;7;
49064;PMS5003;34876;51.464;-0.150;2023-08-24T11:10:24;7;7;
49064;PMS5003;34876;51.464;-0.150;2023-08-24T11:13:15;8;8;
49064;PMS5003;34876;51.464;-0.150;2023-08-24T11:15:46;10;8;
49064;PMS5003;34876;51.464;-0.150;2023-08-24T11:18:20;7;7;
49064;PMS5003;34876;51.464;-0.150;2023-08-24T11:20:52;8;8;
49064;PMS5003;34876;51.464;-0.150;2023-08-24T11:23:22;6;6;
49064;PMS5003;34876;51.464;-0.150;2023-08-24T11:25:53;8;8;
49064;PMS5003;34876;51.464;-0.150;2023-08-24T11:28:23;12;12;
49064;PMS5003;34876;51.464;-0.150;2023-08-24T11:30:53;10;10;
49064;PMS5003;34876;51.464;-0.150;2023-08-24T11:33:30;8;7;
49064;PMS5003;34876;51.464;-0.150;2023-08-24T11:36:02;7;7;
49064;PMS5003;34876;51.464;-0.150;2023-08-24T11:38:36;10;9;
49064;PMS5003;34876;51.464;-0.150;2023-08-24T11:41:14;9;8;
49064;PMS5003;34876;51.464;-0.150;2023-08-24T11:43:44;8;8;
49064;PMS5003;34876;51.464;-0.150;2023-08-24T11:46:15;7;7;
49064;PMS5003;34876;51.464;-0.150;2023-08-24T11:48:44;9;9;
49064;PMS5003;34876;51.464;-0.150;2023-08-24T11:51:15;10;7;
49064;PMS5003;34876;51.464;-0.150;2023-08-24T11:53:46;8;8;
49064;PMS5003;34876;51.464;-0.150;2023-08-24T11:56:16;6;6;
49064;PMS5003;34876;51.464;-0.150;2023-08-24T11:58:47;10;10;
49064;PMS5003;34876;51.464;-0.150;2023-08-24T12:01:18;7;6;
49064;PMS5003;34876;51.464;-0.150;2023-08-24T12:03:48;11;8;
49064;PMS5003;34876;51.464;-0.150;2023-08-24T12:06:18;9;9;
49064;PMS5003;34876;51.464;-0.150;2023-08-24T12:08:47;8;8;
49064;PMS5003;34876;51.464;-0.150;2023-08-24T12:11:17;9;9;
49064;PMS5003;34876;51.464;-0.150;2023-08-24T12:13:53;9;9;
49064;PMS5003;34876;51.464;-0.150;2023-08-24T12:16:23;9;8;
49064;PMS5003;34876;51.464;-0.150;2023-08-24T12:18:54;8;8;
49064;PMS5003;34876;51.464;-0.150;2023-08-24T12:21:24;11;9;
49064;PMS5003;34876;51.464;-0.150;2023-08-24T12:23:55;10;8;
49064;PMS5003;34876;51.464;-0.150;2023-08-24T12:26:26;8;7;
49064;PMS5003;34876;51.464;-0.150;2023-08-24T12:28:58;8;7;
49064;PMS5003;34876;51.464;-0.150;2023-08-24T12:31:30;8;8;
49064;PMS5003;34876;51.464;-0.150;2023-08-24T12:34:01;10;10;
49064;PMS5003;34876;51.464;-0.150;2023-08-24T12:36:32;7;7;
49064;PMS5003;34876;51.464;-0.150;2023-08-24T12:39:02;11;11;
49064;PMS5003;34876;51.464;-0.150;2023-08-24T12:41:31;7;7;
49064;PMS5003;34876;51.464;-0.150;2023-08-24T12:44:00;8;8;
49064;PMS5003;34876;51.464;-0.150;2023-08-24T12:46:30;8;7;
49064;PMS5003;34876;51.464;-0.150;2023-08-24T12:48:59;7;7;
49064;PMS5003;34876;51.464;-0.150;2023-08-24T12:51:30;10;8;
49064;PMS5003;34876;51.464;-0.150;2023-08-24T12:53:59;11;9;
49064;PMS5003;34876;51.464;-0.150;2023-08-24T12:56:29;7;7;
49064;PMS5003;34876;51.464;-0.150;2023-08-24T12:58:59;8;8;
49064;PMS5003;34876;51.464;-0.150;2023-08-24T13:01:29;9;9;
49064;PMS5003;34876;51.464;-0.150;2023-08-24T13:03:59;10;10;
49064;PMS5003;34876;51.464;-0.150;2023-08-24T13:06:29;8;8;
49064;PMS5003;34876;51.464;-0.150;2023-08-24T13:08:58;9;9;
49064;PMS5003;34876;51.464;-0.150;2023-08-24T13:11:28;10;10;
49064;PMS5003;34876;51.464;-0.150;2023-08-24T13:13:57;10;9;
49064;PMS5003;34876;51.464;-0.150;2023-08-24T13:16:26;7;7;
49064;PMS5003;34876;51.464;-0.150;2023-08-24T13:18:56;10;9;
49064;PMS5003;34876;51.464;-0.150;2023-08-24T13:21:25;9;9;
49064;PMS5003;34876;51.464;-0.150;2023-08-24T13:23:54;9;9;
49064;PMS5003;34876;51.464;-0.150;2023-08-24T13:26:23;9;9;
49064;PMS5003;34876;51.464;-0.150;2023-08-24T13:28:52;7;7;
49064;PMS5003;34876;51.464;-0.150;2023-08-24T13:31:22;7;7;
49064;PMS5003;34876;51.464;-0.150;2023-08-24T13:33:51;7;7;
49064;PMS5003;34876;51.464;-0.150;2023-08-24T13:36:21;8;8;
49064;PMS5003;34876;51.464;-0.150;2023-08-24T13:38:52;10;8;
49064;PMS5003;34876;51.464;-0.150;2023-08-24T13:41:22;8;8;
49064;PMS5003;34876;51.464;-0.150;2023-08-24T13:43:51;6;6;
49064;PMS5003;34876;51.464;-0.150;2023-08-24T13:46:22;6;6;
49064;PMS5003;34876;51.464;-0.150;2023-08-24T13:48:51;7;7;
49064;PMS5003;34876;51.464;-0.150;2023-08-24T13:51:21;5;5;
49064;PMS5003;34876;51.464;-0.150;2023-08-24T13:53:52;10;10;
49064;PMS5003;34876;51.464;-0.150;2023-08-24T13:56:20;9;8;
49064;PMS5003;34876;51.464;-0.150;2023-08-24T13:58:50;14;12;
49064;PMS5003;34876;51.464;-0.150;2023-08-24T14:01:25;8;8;
49064;PMS5003;34876;51.464;-0.150;2023-08-24T14:03:54;7;7;
49064;PMS5003;34876;51.464;-0.150;2023-08-24T14:06:24;7;7;
49064;PMS5003;34876;51.464;-0.150;2023-08-24T14:08:53;9;8;
49064;PMS5003;34876;51.464;-0.150;2023-08-24T14:11:24;9;9;
49064;PMS5003;34876;51.464;-0.150;2023-08-24T14:13:53;8;8;
49064;PMS5003;34876;51.464;-0.150;2023-08-24T14:16:22;8;8;
49064;PMS5003;34876;51.464;-0.150;2023-08-24T14:18:52;10;9;
49064;PMS5003;34876;51.464;-0.150;2023-08-24T14:21:22;6;6;
49064;PMS5003;34876;51.464;-0.150;2023-08-24T14:23:50;10;9;
49064;PMS5003;34876;51.464;-0.150;2023-08-24T14:26:20;8;8;
49064;PMS5003;34876;51.464;-0.150;2023-08-24T14:28:50;7;7;
49064;PMS5003;34876;51.464;-0.150;2023-08-24T14:31:22;13;13;
49064;PMS5003;34876;51.464;-0.150;2023-08-24T14:33:52;8;7;
49064;PMS5003;34876;51.464;-0.150;2023-08-24T14:36:21;6;6;
49064;PMS5003;34876;51.464;-0.150;2023-08-24T14:38:51;6;6;
49064;PMS5003;34876;51.464;-0.150;2023-08-24T14:41:20;8;8;
49064;PMS5003;34876;51.464;-0.150;2023-08-24T14:43:50;9;9;
49064;PMS5003;34876;51.464;-0.150;2023-08-24T14:46:20;8;8;
49064;PMS5003;34876;51.464;-0.150;2023-08-24T14:48:50;8;7;
49064;PMS5003;34876;51.464;-0.150;2023-08-24T14:51:19;7;7;
49064;PMS5003;34876;51.464;-0.150;2023-08-24T14:53:49;9;8;
49064;PMS5003;34876;51.464;-0.150;2023-08-24T14:56:19;8;5;
49064;PMS5003;34876;51.464;-0.150;2023-08-24T14:58:49;8;7;
49064;PMS5003;34876;51.464;-0.150;2023-08-24T15:01:18;8;7;
49064;PMS5003;34876;51.464;-0.150;2023-08-24T15:03:48;8;8;
49064;PMS5003;34876;51.464;-0.150;2023-08-24T15:06:18;6;6;
49064;PMS5003;34876;51.464;-0.150;2023-08-24T15:08:47;8;8;
49064;PMS5003;34876;51.464;-0.150;2023-08-24T15:11:17;9;9;
49064;PMS5003;34876;51.464;-0.150;2023-08-24T15:13:47;9;8;
49064;PMS5003;34876;51.464;-0.150;2023-08-24T15:16:16;7;7;
49064;PMS5003;34876;51.464;-0.150;2023-08-24T15:18:46;8;7;
49064;PMS5003;34876;51.464;-0.150;2023-08-24T15:21:22;7;7;
49064;PMS5003;34876;51.464;-0.150;2023-08-24T15:23:50;7;7;
49064;PMS5003;34876;51.464;-0.150;2023-08-24T15:26:20;7;7;
49064;PMS5003;34876;51.464;-0.150;2023-08-24T15:29:11;12;11;
49064;PMS5003;34876;51.464;-0.150;2023-08-24T15:31:41;8;8;
49064;PMS5003;34876;51.464;-0.150;2023-08-24T15:34:11;7;7;
49064;PMS5003;34876;51.464;-0.150;2023-08-24T15:36:40;8;6;
49064;PMS5003;34876;51.464;-0.150;2023-08-24T15:39:09;8;7;
49064;PMS5003;34876;51.464;-0.150;2023-08-24T15:41:38;6;6;
49064;PMS5003;34876;51.464;-0.150;2023-08-24T15:44:09;6;6;
49064;PMS5003;34876;51.464;-0.150;2023-08-24T15:46:39;6;6;
49064;PMS5003;34876;51.464;-0.150;2023-08-24T15:49:08;7;6;
49064;PMS5003;34876;51.464;-0.150;2023-08-24T15:51:38;8;8;
49064;PMS5003;34876;51.464;-0.150;2023-08-24T15:54:08;7;7;
49064;PMS5003;34876;51.464;-0.150;2023-08-24T15:56:38;11;8;
49064;PMS5003;34876;51.464;-0.150;2023-08-24T15:59:08;6;6;
49064;PMS5003;34876;51.464;-0.150;2023-08-24T16:01:38;8;8;
49064;PMS5003;34876;51.464;-0.150;2023-08-24T16:04:08;8;8;
49064;PMS5003;34876;51.464;-0.150;2023-08-24T16:06:37;7;7;
49064;PMS5003;34876;51.464;-0.150;2023-08-24T16:09:07;9;9;
49064;PMS5003;34876;51.464;-0.150;2023-08-24T16:11:37;8;8;
49064;PMS5003;34876;51.464;-0.150;2023-08-24T16:14:08;8;8;
49064;PMS5003;34876;51.464;-0.150;2023-08-24T16:16:38;4;4;
49064;PMS5003;34876;51.464;-0.150;2023-08-24T16:19:08;8;8;
49064;PMS5003;34876;51.464;-0.150;2023-08-24T16:21:38;7;7;
49064;PMS5003;34876;51.464;-0.150;2023-08-24T16:24:08;7;7;
49064;PMS5003;34876;51.464;-0.150;2023-08-24T16:26:37;9;9;
49064;PMS5003;34876;51.464;-0.150;2023-08-24T16:29:06;6;6;
49064;PMS5003;34876;51.464;-0.150;2023-08-24T16:31:36;8;8;
49064;PMS5003;34876;51.464;-0.150;2023-08-24T16:34:06;8;8;
49064;PMS5003;34876;51.464;-0.150;2023-08-24T16:36:34;9;8;
49064;PMS5003;34876;51.464;-0.150;2023-08-24T16:39:03;8;8;
49064;PMS5003;34876;51.464;-0.150;2023-08-24T16:41:32;9;9;
49064;PMS5003;34876;51.464;-0.150;2023-08-24T16:44:03;10;10;